createdAt,value
2023-05-18T00:00:16.479Z,100.00
2023-05-18T00:02:43.307Z,100.00
2023-05-18T00:05:12.437Z,100.00
2023-05-18T00:07:40.920Z,100.00
2023-05-18T00:10:08.220Z,100.00
2023-05-18T00:12:34.664Z,100.00
2023-05-18T00:15:01.156Z,100.00
2023-05-18T00:17:29.034Z,100.00
2023-05-18T00:19:58.508Z,100.00
2023-05-18T00:22:26.404Z,100.00
2023-05-18T00:24:53.039Z,100.00
2023-05-18T00:27:19.511Z,100.00
2023-05-18T00:29:46.214Z,100.00
2023-05-18T00:32:12.872Z,100.00
2023-05-18T00:34:39.301Z,100.00
2023-05-18T00:37:05.950Z,100.00
2023-05-18T00:39:32.418Z,100.00
2023-05-18T00:41:58.953Z,100.00
2023-05-18T00:44:25.659Z,100.00
2023-05-18T00:46:52.176Z,100.00
2023-05-18T00:49:19.065Z,100.00
2023-05-18T00:51:45.812Z,100.00
2023-05-18T00:54:12.410Z,100.00
2023-05-18T00:56:42.107Z,100.00
2023-05-18T00:59:13.936Z,100.00
2023-05-18T01:01:46.215Z,100.00
2023-05-18T01:04:16.253Z,100.00
2023-05-18T01:06:42.975Z,100.00
2023-05-18T01:09:12.149Z,100.00
2023-05-18T01:12:04.637Z,100.00
2023-05-18T01:14:37.294Z,100.00
2023-05-18T01:17:23.655Z,100.00
2023-05-18T01:20:06.949Z,100.00
2023-05-18T01:22:56.360Z,100.00
2023-05-18T01:25:47.105Z,100.00
2023-05-18T01:28:20.302Z,100.00
2023-05-18T01:30:47.753Z,100.00
2023-05-18T01:33:14.757Z,100.00
2023-05-18T01:35:50.565Z,100.00
2023-05-18T01:38:26.277Z,100.00
2023-05-18T01:41:11.380Z,100.00
2023-05-18T01:43:47.031Z,100.00
2023-05-18T01:46:35.989Z,100.00
2023-05-18T01:49:11.211Z,100.00
2023-05-18T01:51:44.480Z,100.00
2023-05-18T01:54:12.841Z,100.00
2023-05-18T01:56:40.762Z,100.00
2023-05-18T01:59:08.287Z,100.00
2023-05-18T02:01:34.815Z,100.00
2023-05-18T02:04:01.648Z,100.00
2023-05-18T02:06:28.672Z,100.00
2023-05-18T02:08:55.378Z,100.00
2023-05-18T02:11:21.900Z,100.00
2023-05-18T02:13:48.400Z,100.00
2023-05-18T02:16:14.964Z,100.00
2023-05-18T02:18:43.002Z,100.00
2023-05-18T02:21:10.507Z,100.00
2023-05-18T02:23:37.038Z,100.00
2023-05-18T02:26:03.592Z,100.00
2023-05-18T02:28:30.363Z,100.00
2023-05-18T02:31:11.958Z,100.00
2023-05-18T02:33:41.646Z,100.00
2023-05-18T02:36:09.946Z,100.00
2023-05-18T02:38:38.481Z,100.00
2023-05-18T02:41:05.700Z,100.00
2023-05-18T02:43:33.232Z,100.00
2023-05-18T02:45:59.969Z,100.00
2023-05-18T02:48:26.934Z,100.00
2023-05-18T02:50:53.855Z,100.00
2023-05-18T02:53:21.166Z,100.00
2023-05-18T02:55:48.679Z,100.00
2023-05-18T02:58:16.069Z,100.00
2023-05-18T03:00:42.685Z,100.00
2023-05-18T03:03:10.947Z,100.00
2023-05-18T03:05:37.686Z,100.00
2023-05-18T03:08:05.150Z,100.00
2023-05-18T03:10:32.281Z,100.00
2023-05-18T03:12:58.752Z,100.00
2023-05-18T03:15:25.202Z,100.00
2023-05-18T03:17:51.953Z,100.00
2023-05-18T03:20:19.823Z,100.00
2023-05-18T03:22:46.424Z,100.00
2023-05-18T03:25:12.926Z,100.00
2023-05-18T03:27:39.395Z,100.00
2023-05-18T03:30:06.492Z,100.00
2023-05-18T03:32:33.974Z,100.00
2023-05-18T03:35:01.257Z,100.00
2023-05-18T03:37:30.772Z,100.00
2023-05-18T03:40:11.266Z,100.00
2023-05-18T03:42:39.054Z,100.00
2023-05-18T03:45:06.306Z,100.00
2023-05-18T03:47:32.965Z,100.00
2023-05-18T03:49:59.904Z,100.00
2023-05-18T03:52:26.388Z,100.00
2023-05-18T03:54:52.940Z,100.00
2023-05-18T03:57:19.815Z,100.00
2023-05-18T03:59:47.860Z,100.00
2023-05-18T04:02:16.566Z,100.00
2023-05-18T04:04:45.966Z,100.00
2023-05-18T04:07:15.416Z,100.00
2023-05-18T04:09:43.691Z,100.00
2023-05-18T04:12:10.723Z,100.00
2023-05-18T04:14:37.290Z,100.00
2023-05-18T04:17:05.076Z,100.00
2023-05-18T04:19:32.947Z,100.00
2023-05-18T04:22:00.017Z,100.00
2023-05-18T04:24:26.997Z,100.00
2023-05-18T04:26:53.684Z,100.00
2023-05-18T04:29:21.221Z,100.00
2023-05-18T04:31:48.158Z,100.00
2023-05-18T04:34:17.876Z,100.00
2023-05-18T04:36:44.714Z,100.00
2023-05-18T04:39:12.199Z,100.00
2023-05-18T04:41:42.144Z,100.00
2023-05-18T04:44:09.568Z,100.00
2023-05-18T04:46:39.681Z,100.00
2023-05-18T04:49:06.320Z,100.00
2023-05-18T04:51:34.623Z,100.00
2023-05-18T04:54:03.384Z,100.00
2023-05-18T04:56:29.894Z,100.00
2023-05-18T04:58:59.347Z,100.00
2023-05-18T05:01:26.112Z,100.00
2023-05-18T05:03:52.755Z,100.00
2023-05-18T05:06:19.318Z,100.00
2023-05-18T05:08:46.073Z,100.00
2023-05-18T05:11:12.633Z,100.00
2023-05-18T05:13:39.266Z,100.00
2023-05-18T05:16:06.312Z,100.00
2023-05-18T05:18:32.965Z,100.00
2023-05-18T05:20:59.654Z,100.00
2023-05-18T05:23:26.296Z,100.00
2023-05-18T05:25:52.965Z,100.00
2023-05-18T05:28:19.411Z,100.00
2023-05-18T05:30:46.037Z,100.00
2023-05-18T05:33:12.536Z,100.00
2023-05-18T05:35:41.504Z,100.00
2023-05-18T05:38:08.650Z,100.00
2023-05-18T05:40:35.112Z,100.00
2023-05-18T05:43:01.635Z,100.00
2023-05-18T05:45:28.796Z,100.00
2023-05-18T05:47:55.861Z,100.00
2023-05-18T05:50:22.445Z,100.00
2023-05-18T05:52:49.026Z,100.00
2023-05-18T05:55:15.753Z,100.00
2023-05-18T05:57:42.936Z,100.00
2023-05-18T06:00:11.280Z,100.00
2023-05-18T06:02:38.058Z,100.00
2023-05-18T06:05:06.261Z,100.00
2023-05-18T06:07:33.123Z,100.00
2023-05-18T06:09:59.580Z,100.00
2023-05-18T06:12:26.149Z,100.00
2023-05-18T06:14:54.329Z,100.00
2023-05-18T06:17:21.095Z,100.00
2023-05-18T06:19:47.529Z,100.00
2023-05-18T06:22:14.075Z,100.00
2023-05-18T06:24:40.542Z,100.00
2023-05-18T06:27:08.467Z,100.00
2023-05-18T06:29:34.939Z,100.00
2023-05-18T06:32:02.556Z,93.17
2023-05-18T06:34:29.111Z,99.41
2023-05-18T06:36:56.108Z,88.97
2023-05-18T06:39:22.584Z,85.64
2023-05-18T06:41:51.927Z,83.91
2023-05-18T06:44:18.344Z,87.42
2023-05-18T06:46:47.052Z,85.49
2023-05-18T06:49:13.547Z,91.87
2023-05-18T06:51:40.082Z,89.57
2023-05-18T06:54:06.654Z,86.78
2023-05-18T06:56:33.114Z,88.96
2023-05-18T06:59:00.472Z,89.72
2023-05-18T07:01:27.186Z,87.17
2023-05-18T07:03:53.710Z,88.13
2023-05-18T07:06:20.668Z,88.87
2023-05-18T07:08:47.830Z,89.59
2023-05-18T07:11:15.067Z,91.74
2023-05-18T07:13:42.660Z,85.58
2023-05-18T07:16:09.253Z,82.90
2023-05-18T07:18:35.810Z,83.90
2023-05-18T07:21:02.300Z,83.74
2023-05-18T07:23:29.091Z,83.91
2023-05-18T07:25:57.347Z,81.98
2023-05-18T07:28:23.723Z,78.96
2023-05-18T07:30:50.264Z,80.42
2023-05-18T07:33:16.882Z,85.01
2023-05-18T07:35:43.478Z,81.95
2023-05-18T07:38:09.952Z,80.10
2023-05-18T07:40:36.426Z,79.65
2023-05-18T07:43:02.857Z,81.76
2023-05-18T07:45:29.654Z,77.85
2023-05-18T07:47:57.644Z,81.47
2023-05-18T07:50:24.294Z,77.82
2023-05-18T07:52:50.766Z,78.31
2023-05-18T07:55:17.496Z,76.82
2023-05-18T07:57:44.152Z,78.29
2023-05-18T08:00:11.247Z,77.91
2023-05-18T08:02:38.709Z,78.52
2023-05-18T08:05:05.975Z,76.50
2023-05-18T08:07:33.841Z,82.06
2023-05-18T08:10:00.510Z,84.38
2023-05-18T08:12:27.008Z,78.96
2023-05-18T08:14:53.707Z,76.28
2023-05-18T08:17:20.187Z,74.66
2023-05-18T08:19:47.864Z,80.01
2023-05-18T08:22:15.532Z,75.94
2023-05-18T08:24:44.112Z,73.04
2023-05-18T08:27:11.342Z,72.68
2023-05-18T08:29:38.972Z,76.19
2023-05-18T08:32:07.346Z,78.25
2023-05-18T08:34:34.727Z,76.64
2023-05-18T08:37:01.426Z,75.63
2023-05-18T08:39:31.641Z,72.61
2023-05-18T08:42:03.809Z,75.66
2023-05-18T08:44:40.196Z,74.57
2023-05-18T08:47:11.060Z,81.18
2023-05-18T08:49:40.490Z,73.35
2023-05-18T08:52:08.601Z,76.82
2023-05-18T08:54:37.366Z,70.57
2023-05-18T08:57:11.951Z,77.99
2023-05-18T08:59:44.436Z,75.10
2023-05-18T09:02:11.763Z,74.40
2023-05-18T09:04:38.849Z,75.60
2023-05-18T09:07:07.235Z,73.44
2023-05-18T09:09:35.463Z,72.77
2023-05-18T09:12:01.888Z,70.82
2023-05-18T09:14:29.161Z,71.36
2023-05-18T09:16:55.789Z,79.68
2023-05-18T09:19:24.619Z,70.13
2023-05-18T09:21:51.260Z,74.56
2023-05-18T09:24:19.302Z,68.83
2023-05-18T09:26:46.255Z,67.08
2023-05-18T09:29:24.227Z,68.73
2023-05-18T09:31:51.845Z,69.79
2023-05-18T09:34:19.371Z,69.21
2023-05-18T09:36:52.785Z,67.07
2023-05-18T09:39:19.336Z,70.07
2023-05-18T09:41:46.093Z,67.38
2023-05-18T09:44:13.349Z,68.79
2023-05-18T09:46:40.503Z,66.19
2023-05-18T09:49:07.986Z,68.32
2023-05-18T09:51:38.748Z,71.90
2023-05-18T09:54:08.600Z,66.25
2023-05-18T09:56:36.682Z,65.55
2023-05-18T09:59:16.312Z,72.62
2023-05-18T10:01:56.833Z,68.29
2023-05-18T10:04:23.825Z,61.40
2023-05-18T10:06:51.256Z,61.47
2023-05-18T10:09:18.019Z,64.22
2023-05-18T10:11:44.547Z,64.22
2023-05-18T10:14:11.652Z,63.56
2023-05-18T10:16:38.431Z,61.25
2023-05-18T10:19:08.805Z,61.19
2023-05-18T10:21:37.897Z,60.14
2023-05-18T10:24:08.669Z,58.47
2023-05-18T10:26:39.010Z,60.14
2023-05-18T10:29:06.303Z,59.94
2023-05-18T10:31:35.503Z,61.24
2023-05-18T10:34:03.932Z,65.44
2023-05-18T10:36:32.692Z,60.37
2023-05-18T10:39:00.686Z,60.80
2023-05-18T10:41:28.350Z,64.48
2023-05-18T10:43:55.153Z,66.68
2023-05-18T10:46:26.710Z,58.29
2023-05-18T10:48:54.866Z,61.94
2023-05-18T10:51:21.460Z,60.80
2023-05-18T10:53:48.324Z,61.34
2023-05-18T10:56:17.758Z,61.60
2023-05-18T10:58:45.846Z,62.50
2023-05-18T11:01:13.643Z,59.83
2023-05-18T11:03:42.149Z,58.45
2023-05-18T11:06:11.497Z,60.76
2023-05-18T11:08:46.050Z,59.86
2023-05-18T11:11:12.598Z,61.24
2023-05-18T11:13:52.461Z,59.22
2023-05-18T11:16:20.986Z,58.58
2023-05-18T11:18:49.800Z,61.08
2023-05-18T11:21:32.047Z,58.86
2023-05-18T11:24:18.604Z,61.18
2023-05-18T11:26:51.081Z,66.13
2023-05-18T11:29:22.389Z,60.74
2023-05-18T11:31:55.537Z,62.52
2023-05-18T11:34:40.102Z,61.17
2023-05-18T11:37:10.150Z,60.79
2023-05-18T11:39:44.744Z,63.25
2023-05-18T11:42:18.804Z,62.67
2023-05-18T11:44:52.094Z,65.42
2023-05-18T11:47:18.699Z,63.15
2023-05-18T11:49:46.885Z,64.04
2023-05-18T11:52:14.254Z,65.03
2023-05-18T11:54:49.499Z,65.94
2023-05-18T11:57:18.576Z,65.27
2023-05-18T11:59:53.923Z,63.29
2023-05-18T12:02:24.043Z,61.93
2023-05-18T12:04:55.350Z,63.19
2023-05-18T12:07:23.640Z,62.19
2023-05-18T12:09:52.954Z,61.75
2023-05-18T12:12:23.997Z,69.45
2023-05-18T12:14:57.505Z,60.86
2023-05-18T12:17:37.358Z,62.34
2023-05-18T12:20:04.804Z,65.37
2023-05-18T12:22:31.390Z,61.21
2023-05-18T12:24:57.881Z,63.41
2023-05-18T12:27:26.707Z,61.77
2023-05-18T12:29:54.796Z,61.54
2023-05-18T12:32:21.310Z,62.62
2023-05-18T12:34:48.244Z,61.77
2023-05-18T12:37:15.373Z,64.43
2023-05-18T12:39:41.810Z,59.07
2023-05-18T12:42:13.645Z,61.75
2023-05-18T12:44:44.458Z,63.14
2023-05-18T12:47:14.889Z,60.69
2023-05-18T12:49:47.989Z,62.09
2023-05-18T12:52:16.559Z,64.35
2023-05-18T12:55:01.169Z,61.25
2023-05-18T12:57:30.570Z,61.21
2023-05-18T12:59:57.882Z,62.29
2023-05-18T13:02:31.107Z,61.36
2023-05-18T13:05:09.754Z,68.71
2023-05-18T13:07:46.397Z,64.06
2023-05-18T13:10:16.784Z,58.79
2023-05-18T13:12:43.188Z,62.47
2023-05-18T13:15:13.467Z,60.97
2023-05-18T13:18:00.226Z,63.08
2023-05-18T13:20:49.640Z,59.99
2023-05-18T13:23:21.615Z,59.65
2023-05-18T13:25:49.335Z,60.04
2023-05-18T13:28:20.610Z,60.84
2023-05-18T13:30:49.096Z,60.50
2023-05-18T13:33:17.891Z,61.13
2023-05-18T13:35:45.455Z,59.36
2023-05-18T13:38:14.671Z,60.03
2023-05-18T13:40:42.174Z,59.95
2023-05-18T13:43:11.226Z,59.42
2023-05-18T13:45:39.426Z,62.47
2023-05-18T13:48:09.615Z,62.30
2023-05-18T13:50:36.730Z,60.13
2023-05-18T13:53:03.467Z,57.57
2023-05-18T13:55:30.235Z,62.75
2023-05-18T13:57:56.929Z,64.41
2023-05-18T14:00:23.510Z,61.05
2023-05-18T14:02:50.080Z,61.46
2023-05-18T14:05:16.627Z,62.55
2023-05-18T14:07:44.151Z,63.96
2023-05-18T14:10:12.533Z,62.66
2023-05-18T14:12:39.366Z,63.33
2023-05-18T14:15:06.476Z,61.97
2023-05-18T14:17:34.079Z,63.75
2023-05-18T14:20:00.785Z,61.78
2023-05-18T14:22:27.440Z,61.50
2023-05-18T14:24:54.066Z,61.02
2023-05-18T14:27:20.683Z,65.63
2023-05-18T14:29:49.446Z,60.25
2023-05-18T14:32:16.935Z,59.85
2023-05-18T14:34:43.474Z,60.66
2023-05-18T14:37:09.929Z,64.05
2023-05-18T14:39:36.402Z,60.91
2023-05-18T14:42:05.502Z,63.81
2023-05-18T14:44:32.090Z,63.49
2023-05-18T14:46:58.637Z,62.14
2023-05-18T14:49:25.408Z,60.93
2023-05-18T14:51:51.948Z,57.19
2023-05-18T14:54:19.365Z,61.71
2023-05-18T14:56:45.990Z,60.58
2023-05-18T14:59:12.435Z,60.91
2023-05-18T15:01:39.099Z,64.76
2023-05-18T15:04:05.758Z,63.94
2023-05-18T15:06:33.362Z,60.43
2023-05-18T15:08:59.883Z,62.00
2023-05-18T15:11:26.628Z,61.77
2023-05-18T15:13:53.286Z,61.73
2023-05-18T15:16:19.938Z,61.15
2023-05-18T15:18:46.908Z,63.74
2023-05-18T15:21:13.591Z,63.88
2023-05-18T15:23:42.926Z,61.74
2023-05-18T15:26:09.501Z,64.57
2023-05-18T15:28:36.080Z,62.07
2023-05-18T15:31:02.726Z,61.94
2023-05-18T15:33:29.163Z,64.22
2023-05-18T15:35:55.641Z,62.19
2023-05-18T15:38:22.132Z,62.52
2023-05-18T15:40:50.285Z,61.51
2023-05-18T15:43:17.015Z,63.92
2023-05-18T15:45:43.464Z,63.78
2023-05-18T15:48:10.027Z,65.44
2023-05-18T15:50:36.623Z,62.20
2023-05-18T15:53:03.316Z,62.32
2023-05-18T15:55:29.756Z,63.41
2023-05-18T15:57:56.187Z,64.26
2023-05-18T16:00:24.768Z,64.94
2023-05-18T16:02:51.298Z,64.58
2023-05-18T16:05:17.850Z,64.10
2023-05-18T16:07:46.090Z,62.02
2023-05-18T16:10:14.264Z,65.19
2023-05-18T16:12:40.875Z,65.65
2023-05-18T16:15:07.782Z,64.44
2023-05-18T16:17:34.411Z,65.09
2023-05-18T16:20:03.582Z,66.96
2023-05-18T16:22:30.642Z,65.30
2023-05-18T16:25:01.112Z,67.82
2023-05-18T16:27:27.774Z,67.66
2023-05-18T16:29:54.585Z,67.47
2023-05-18T16:32:21.092Z,69.01
2023-05-18T16:34:47.529Z,70.55
2023-05-18T16:37:14.114Z,68.23
2023-05-18T16:39:40.616Z,67.89
2023-05-18T16:42:07.746Z,68.08
2023-05-18T16:44:35.388Z,69.76
2023-05-18T16:47:01.893Z,69.15
2023-05-18T16:49:28.433Z,71.39
2023-05-18T16:51:54.856Z,69.76
2023-05-18T16:54:21.413Z,70.02
2023-05-18T16:56:47.893Z,72.68
2023-05-18T16:59:14.449Z,72.88
2023-05-18T17:01:41.627Z,73.33
2023-05-18T17:04:08.280Z,72.69
2023-05-18T17:06:34.799Z,75.54
2023-05-18T17:09:06.131Z,81.39
2023-05-18T17:11:33.110Z,83.72
2023-05-18T17:14:01.399Z,84.03
2023-05-18T17:16:28.439Z,83.99
2023-05-18T17:18:56.215Z,86.37
2023-05-18T17:21:24.211Z,84.13
2023-05-18T17:23:50.791Z,86.90
2023-05-18T17:26:17.370Z,87.97
2023-05-18T17:28:43.807Z,89.05
2023-05-18T17:31:14.528Z,86.02
2023-05-18T17:33:46.936Z,88.11
2023-05-18T17:36:17.127Z,84.40
2023-05-18T17:38:44.728Z,82.77
2023-05-18T17:41:11.791Z,88.54
2023-05-18T17:43:38.272Z,88.79
2023-05-18T17:46:05.100Z,90.57
2023-05-18T17:48:31.737Z,94.07
2023-05-18T17:50:58.238Z,91.82
2023-05-18T17:53:24.771Z,94.88
2023-05-18T17:55:51.688Z,96.98
2023-05-18T17:58:18.167Z,100.00
2023-05-18T18:00:44.618Z,100.00
2023-05-18T18:03:11.538Z,99.24
2023-05-18T18:05:38.240Z,97.55
2023-05-18T18:08:04.798Z,100.00
2023-05-18T18:10:34.735Z,99.35
2023-05-18T18:13:01.511Z,100.00
2023-05-18T18:15:28.921Z,96.26
2023-05-18T18:17:56.410Z,96.49
2023-05-18T18:20:23.459Z,100.00
2023-05-18T18:22:50.006Z,97.94
2023-05-18T18:25:16.583Z,85.12
2023-05-18T18:27:43.203Z,78.46
2023-05-18T18:30:10.703Z,74.27
2023-05-18T18:32:37.283Z,74.78
2023-05-18T18:35:04.439Z,69.79
2023-05-18T18:37:32.129Z,71.21
2023-05-18T18:39:58.613Z,72.12
2023-05-18T18:42:25.138Z,66.96
2023-05-18T18:44:56.479Z,73.65
2023-05-18T18:47:23.342Z,73.54
2023-05-18T18:49:49.812Z,70.33
2023-05-18T18:52:16.474Z,69.88
2023-05-18T18:54:43.105Z,67.14
2023-05-18T18:57:11.920Z,69.43
2023-05-18T18:59:42.856Z,71.57
2023-05-18T19:02:09.410Z,71.26
2023-05-18T19:04:37.077Z,72.33
2023-05-18T19:07:04.726Z,72.90
2023-05-18T19:09:34.673Z,74.04
2023-05-18T19:12:01.399Z,74.05
2023-05-18T19:14:28.212Z,72.87
2023-05-18T19:16:54.790Z,75.03
2023-05-18T19:19:21.240Z,74.87
2023-05-18T19:21:47.833Z,74.16
2023-05-18T19:24:14.300Z,76.28
2023-05-18T19:26:40.734Z,76.57
2023-05-18T19:29:07.378Z,78.95
2023-05-18T19:31:35.943Z,82.41
2023-05-18T19:34:02.530Z,83.61
2023-05-18T19:36:29.074Z,85.21
2023-05-18T19:38:56.009Z,85.41
2023-05-18T19:41:24.506Z,84.84
2023-05-18T19:43:51.344Z,86.63
2023-05-18T19:46:18.685Z,89.23
2023-05-18T19:48:45.225Z,88.13
2023-05-18T19:51:11.944Z,90.98
2023-05-18T19:53:38.560Z,92.87
2023-05-18T19:56:05.304Z,95.09
2023-05-18T19:58:31.826Z,95.37
2023-05-18T20:00:59.173Z,97.20
2023-05-18T20:03:26.438Z,97.31
2023-05-18T20:05:53.205Z,98.07
2023-05-18T20:08:20.230Z,99.33
2023-05-18T20:10:47.823Z,100.00
2023-05-18T20:13:15.515Z,100.00
2023-05-18T20:15:43.745Z,100.00
2023-05-18T20:18:11.220Z,100.00
2023-05-18T20:20:38.677Z,100.00
2023-05-18T20:23:07.550Z,100.00
2023-05-18T20:25:35.496Z,100.00
2023-05-18T20:28:03.445Z,100.00
2023-05-18T20:30:30.893Z,100.00
2023-05-18T20:33:00.809Z,100.00
2023-05-18T20:35:27.894Z,100.00
2023-05-18T20:37:55.856Z,100.00
2023-05-18T20:40:23.407Z,100.00
2023-05-18T20:42:54.206Z,100.00
2023-05-18T20:45:22.911Z,100.00
2023-05-18T20:47:52.913Z,100.00
2023-05-18T20:50:21.073Z,100.00
2023-05-18T20:52:48.114Z,100.00
2023-05-18T20:55:15.027Z,100.00
2023-05-18T20:57:44.580Z,100.00
2023-05-18T21:00:12.953Z,100.00
2023-05-18T21:02:45.229Z,100.00
2023-05-18T21:05:13.039Z,100.00
2023-05-18T21:07:40.066Z,100.00
2023-05-18T21:10:08.756Z,100.00
2023-05-18T21:12:36.670Z,100.00
2023-05-18T21:15:04.204Z,100.00
2023-05-18T21:17:32.170Z,100.00
2023-05-18T21:19:58.938Z,100.00
2023-05-18T21:22:25.520Z,100.00
2023-05-18T21:24:52.106Z,100.00
2023-05-18T21:27:18.726Z,100.00
2023-05-18T21:29:45.704Z,100.00
2023-05-18T21:32:12.521Z,100.00
2023-05-18T21:34:41.225Z,100.00
2023-05-18T21:37:09.986Z,100.00
2023-05-18T21:39:36.517Z,100.00
2023-05-18T21:42:03.858Z,100.00
2023-05-18T21:44:30.682Z,100.00
2023-05-18T21:46:57.893Z,100.00
2023-05-18T21:49:25.048Z,100.00
2023-05-18T21:51:51.988Z,100.00
2023-05-18T21:54:18.966Z,100.00
2023-05-18T21:56:45.848Z,100.00
2023-05-18T21:59:12.415Z,100.00
2023-05-18T22:01:39.974Z,100.00
2023-05-18T22:04:07.726Z,100.00
2023-05-18T22:06:34.599Z,100.00
2023-05-18T22:09:01.414Z,100.00
2023-05-18T22:11:28.033Z,100.00
2023-05-18T22:13:54.610Z,100.00
2023-05-18T22:16:21.677Z,100.00
2023-05-18T22:18:48.196Z,100.00
2023-05-18T22:21:14.950Z,100.00
2023-05-18T22:23:41.687Z,100.00
2023-05-18T22:26:08.416Z,100.00
2023-05-18T22:28:34.965Z,100.00
2023-05-18T22:31:01.647Z,100.00
2023-05-18T22:33:28.552Z,100.00
2023-05-18T22:35:55.124Z,100.00
2023-05-18T22:38:21.964Z,100.00
2023-05-18T22:40:53.777Z,100.00
2023-05-18T22:43:25.774Z,100.00
2023-05-18T22:45:52.294Z,100.00
2023-05-18T22:48:19.150Z,100.00
2023-05-18T22:50:45.873Z,100.00
2023-05-18T22:53:12.642Z,100.00
2023-05-18T22:55:39.412Z,100.00
2023-05-18T22:58:05.949Z,100.00
2023-05-18T23:00:33.227Z,100.00
2023-05-18T23:03:00.186Z,100.00
2023-05-18T23:05:28.031Z,100.00
2023-05-18T23:07:57.727Z,100.00
2023-05-18T23:10:26.688Z,100.00
2023-05-18T23:12:55.679Z,100.00
2023-05-18T23:15:23.032Z,100.00
2023-05-18T23:17:50.220Z,100.00
2023-05-18T23:20:17.205Z,100.00
2023-05-18T23:22:44.783Z,100.00
2023-05-18T23:25:11.817Z,100.00
2023-05-18T23:27:38.577Z,100.00
2023-05-18T23:30:06.208Z,100.00
2023-05-18T23:32:33.734Z,100.00
2023-05-18T23:35:01.095Z,100.00
2023-05-18T23:37:29.231Z,100.00
2023-05-18T23:39:56.692Z,100.00
2023-05-18T23:42:24.656Z,100.00
2023-05-18T23:44:51.958Z,100.00
2023-05-18T23:47:19.056Z,100.00
2023-05-18T23:49:46.993Z,100.00
2023-05-18T23:52:14.781Z,100.00
2023-05-18T23:54:42.004Z,100.00
2023-05-18T23:57:09.276Z,100.00
2023-05-18T23:59:37.051Z,100.00
